CST,Max TemperatureF,Mean TemperatureF,Min TemperatureF,Max Dew PointF,MeanDew PointF,Min DewpointF,Max Humidity, Mean Humidity, Min Humidity, Max Sea Level PressureIn, Mean Sea Level PressureIn, Min Sea Level PressureIn, Max VisibilityMiles, Mean VisibilityMiles, Min VisibilityMiles, Max Wind SpeedMPH, Mean Wind SpeedMPH, Max Gust SpeedMPH,PrecipitationIn, CloudCover, Events, WindDirDegrees
2012-11-1,75,62,48,50,43,30,83,57,24,30.06,30.00,29.96,10,9,5,12,3,20,0.00,1,,344
2012-11-2,82,63,44,58,51,40,86,67,38,30.07,30.02,29.97,10,9,4,12,2,18,0.00,0,,287
2012-11-3,86,72,59,62,59,55,94,75,38,30.12,30.06,30.02,10,5,0,7,2,,0.01,0,Fog-Rain,291
2012-11-4,81,68,55,62,56,52,94,77,39,30.10,30.05,29.99,10,5,0,12,3,18,0.00,0,Fog,328
2012-11-5,73,60,48,53,43,30,87,61,22,30.09,30.01,29.93,10,9,6,9,4,,0.06,3,Rain,46
2012-11-6,62,55,48,50,46,43,93,76,52,30.00,29.95,29.89,10,7,0,13,5,21,0.01,6,Fog,355
2012-11-7,66,56,46,46,39,34,86,58,30,30.11,30.00,29.92,10,9,4,16,7,20,0.00,3,,335
2012-11-8,66,52,39,41,37,34,86,62,30,30.23,30.17,30.10,10,10,6,7,4,,0.00,0,,360
2012-11-9,73,55,37,43,38,32,83,61,24,30.30,30.24,30.19,10,9,7,5,0,,0.00,0,,10
2012-11-10,75,57,39,47,40,32,87,65,21,30.33,30.28,30.24,10,8,2,6,1,,0.00,0,,146
2012-11-11,77,61,45,53,49,41,86,67,39,30.33,30.26,30.22,10,10,7,12,3,22,0.00,2,,158
2012-11-12,77,66,52,65,56,46,88,82,62,30.29,30.23,30.16,10,6,1,21,8,30,0.35,6,Rain,8
2012-11-13,62,52,42,45,33,27,83,53,26,30.35,30.28,30.22,10,10,10,14,10,20,0.00,0,,23
2012-11-14,60,51,42,52,45,29,93,78,51,30.27,30.24,30.20,10,6,0,7,4,,0.00,7,Fog,79
2012-11-15,55,50,46,48,44,41,83,75,66,30.27,30.23,30.20,10,8,5,8,4,,0.00,7,,70
2012-11-16,64,55,44,46,44,40,87,76,46,30.29,30.25,30.20,10,7,2,9,4,,0.00,5,,77
2012-11-17,64,52,41,42,37,35,82,59,33,30.35,30.29,30.25,10,9,6,15,4,24,0.00,1,,73
2012-11-18,70,58,45,44,39,33,69,55,36,30.33,30.28,30.24,10,10,10,13,5,,0.00,0,,72
2012-11-19,70,56,43,48,43,38,82,65,38,30.27,30.22,30.16,10,10,9,9,2,,0.00,0,,47
2012-11-20,69,58,48,53,49,43,86,72,51,30.19,30.13,30.08,10,9,5,6,2,,0.00,4,Rain,348
2012-11-21,77,62,46,48,45,40,83,63,33,30.17,30.13,30.09,10,9,7,13,3,17,0.00,0,,354
2012-11-22,75,60,45,48,44,40,82,63,32,30.24,30.18,30.15,10,8,5,4,2,,0.00,0,,312
2012-11-23,75,60,45,53,46,39,83,60,31,30.24,30.16,30.10,10,8,5,15,3,18,0.00,1,,327
2012-11-24,62,52,37,47,30,22,71,49,21,30.23,30.17,30.13,10,10,10,12,8,20,0.00,0,,1
2012-11-25,64,48,32,33,26,16,82,55,16,30.24,30.16,30.12,10,10,10,5,1,,0.00,0,,254
2012-11-26,71,52,33,49,41,29,85,66,41,30.23,30.17,30.14,10,10,5,6,2,,0.00,0,,181
2012-11-27,64,58,53,59,56,48,90,84,72,30.25,30.15,30.08,10,4,1,12,4,,0.68,8,Rain,354
2012-11-28,64,52,39,48,40,34,83,67,33,30.38,30.32,30.24,10,7,4,12,7,16,0.00,4,,15
2012-11-29,62,49,36,46,40,31,87,76,53,30.41,30.34,30.29,10,6,1,8,1,,0.00,4,,111
2012-11-30,73,60,48,54,49,44,87,75,46,30.32,30.26,30.22,10,7,2,7,1,,0.00,3,,123